OMD491 CYXE-KMIA
Flight info
| Callsign | OMD491 |
|---|---|
| Flight time | 3h 54m |
| Altitude | 33000 |
| Route | OMLUV DCT MOT DCT ABR/N0473F350 J45 DSM Q19 STL J45 LAJUG DCT HONID FROGZ5 |
| Aircraft | MD11/H-SDE1E2E3FGHIJ2J3J4J5M1RWXY/LB1D1 |
Departure
| Time | 2026-04-20 09:04 |
|---|---|
| Airport | Saskatoon John G. Diefenbaker International Airport (CYXE) |
Arrival
| Time | 2026-04-20 12:58 |
|---|---|
| Airport | Miami International Airport (KMIA) |
| Time | Latitude | Longitude | Altitude | Speed | Heading |
|---|---|---|---|---|---|
| 2026-04-20 08:51 | 52.17023 | -106.68093 | 1657 ft | 0 kts | 282° |
| 2026-04-20 08:54 | 52.17022 | -106.68081 | 1657 ft | 2 kts | 281° |
| 2026-04-20 08:54 | 52.17020 | -106.68062 | 1675 ft | 2 kts | 260° |
| 2026-04-20 08:55 | 52.17023 | -106.68044 | 1666 ft | 2 kts | 238° |
| 2026-04-20 08:55 | 52.17029 | -106.68028 | 1673 ft | 2 kts | 238° |
| 2026-04-20 08:55 | 52.17035 | -106.68011 | 1673 ft | 2 kts | 228° |
| 2026-04-20 08:55 | 52.17043 | -106.67997 | 1673 ft | 2 kts | 223° |
| 2026-04-20 08:56 | 52.17052 | -106.67984 | 1673 ft | 2 kts | 223° |
| 2026-04-20 08:56 | 52.17061 | -106.67971 | 1673 ft | 2 kts | 228° |
| 2026-04-20 08:56 | 52.17068 | -106.67956 | 1673 ft | 2 kts | 275° |
| 2026-04-20 08:56 | 52.17068 | -106.67955 | 1673 ft | 0 kts | 277° |
| 2026-04-20 09:00 | 52.17069 | -106.67966 | 1666 ft | 3 kts | 277° |
| 2026-04-20 09:00 | 52.17074 | -106.68023 | 1657 ft | 7 kts | 281° |
| 2026-04-20 09:01 | 52.17087 | -106.68127 | 1665 ft | 11 kts | 282° |
| 2026-04-20 09:01 | 52.17111 | -106.68256 | 1673 ft | 11 kts | 305° |
| 2026-04-20 09:01 | 52.17166 | -106.68274 | 1665 ft | 8 kts | 7° |
| 2026-04-20 09:01 | 52.17226 | -106.68260 | 1664 ft | 8 kts | 8° |
| 2026-04-20 09:02 | 52.17276 | -106.68244 | 1664 ft | 6 kts | 11° |
| 2026-04-20 09:02 | 52.17316 | -106.68231 | 1665 ft | 6 kts | 11° |
| 2026-04-20 09:02 | 52.17371 | -106.68214 | 1671 ft | 10 kts | 11° |
| 2026-04-20 09:02 | 52.17419 | -106.68209 | 1671 ft | 3 kts | 337° |
| 2026-04-20 09:03 | 52.17422 | -106.68228 | 1670 ft | 0 kts | 284° |
| 2026-04-20 09:03 | 52.17425 | -106.68248 | 1666 ft | 9 kts | 284° |
| 2026-04-20 09:03 | 52.17478 | -106.68680 | 1665 ft | 79 kts | 281° |
| 2026-04-20 09:04 | 52.17632 | -106.69945 | 1665 ft | 137 kts | 281° |
| 2026-04-20 09:04 | 52.17829 | -106.71654 | 1683 ft | 176 kts | 279° |
| 2026-04-20 09:04 | 52.18029 | -106.73570 | 2477 ft | 164 kts | 276° |
| 2026-04-20 09:04 | 52.17826 | -106.75486 | 3007 ft | 190 kts | 249° |
| 2026-04-20 09:05 | 52.16836 | -106.77148 | 3181 ft | 231 kts | 215° |
| 2026-04-20 09:05 | 52.15145 | -106.77895 | 3378 ft | 270 kts | 185° |
| 2026-04-20 09:05 | 52.13237 | -106.77238 | 3658 ft | 298 kts | 155° |
| 2026-04-20 09:05 | 52.11605 | -106.75145 | 4583 ft | 302 kts | 130° |
| 2026-04-20 09:06 | 52.10359 | -106.72357 | 5410 ft | 308 kts | 123° |
| 2026-04-20 09:06 | 52.09189 | -106.69392 | 6266 ft | 314 kts | 122° |
| 2026-04-20 09:06 | 52.08012 | -106.66365 | 7055 ft | 320 kts | 123° |
| 2026-04-20 09:06 | 52.06817 | -106.63284 | 7814 ft | 326 kts | 123° |
| 2026-04-20 09:07 | 52.05597 | -106.60143 | 8579 ft | 332 kts | 124° |
| 2026-04-20 09:07 | 52.04356 | -106.56947 | 9320 ft | 338 kts | 124° |
| 2026-04-20 09:07 | 52.03079 | -106.53703 | 10010 ft | 343 kts | 126° |
| 2026-04-20 09:07 | 52.01641 | -106.50488 | 10285 ft | 364 kts | 132° |
| 2026-04-20 09:08 | 51.99908 | -106.47321 | 10446 ft | 387 kts | 138° |
| 2026-04-20 09:08 | 51.97925 | -106.44247 | 10884 ft | 398 kts | 142° |
| 2026-04-20 09:08 | 51.95812 | -106.41294 | 11603 ft | 402 kts | 144° |
| 2026-04-20 09:08 | 51.93634 | -106.38417 | 12318 ft | 407 kts | 144° |
| 2026-04-20 09:09 | 51.91483 | -106.35389 | 13011 ft | 413 kts | 142° |
| 2026-04-20 09:09 | 51.89365 | -106.32199 | 13684 ft | 418 kts | 141° |
| 2026-04-20 09:09 | 51.87249 | -106.28922 | 14265 ft | 423 kts | 140° |
| 2026-04-20 09:09 | 51.85121 | -106.25600 | 14837 ft | 428 kts | 140° |
| 2026-04-20 09:10 | 51.82967 | -106.22243 | 15403 ft | 432 kts | 140° |
| 2026-04-20 09:10 | 51.80788 | -106.18860 | 15952 ft | 436 kts | 140° |
| 2026-04-20 09:10 | 51.78585 | -106.15455 | 16492 ft | 441 kts | 140° |
| 2026-04-20 09:10 | 51.76365 | -106.12034 | 17025 ft | 445 kts | 140° |
| 2026-04-20 09:11 | 51.74104 | -106.08561 | 17556 ft | 449 kts | 140° |
| 2026-04-20 09:11 | 51.71828 | -106.05070 | 18073 ft | 453 kts | 140° |
| 2026-04-20 09:11 | 51.69536 | -106.01560 | 18521 ft | 457 kts | 141° |
| 2026-04-20 09:11 | 51.67220 | -105.98019 | 18964 ft | 460 kts | 141° |
| 2026-04-20 09:12 | 51.64893 | -105.94466 | 19402 ft | 463 kts | 141° |
| 2026-04-20 09:12 | 51.62542 | -105.90882 | 19832 ft | 466 kts | 141° |
| 2026-04-20 09:12 | 51.60179 | -105.87285 | 20250 ft | 470 kts | 141° |
| 2026-04-20 09:12 | 51.57799 | -105.83668 | 20684 ft | 473 kts | 141° |
| 2026-04-20 09:13 | 51.55398 | -105.80024 | 21117 ft | 476 kts | 141° |
| 2026-04-20 09:13 | 51.52979 | -105.76360 | 21556 ft | 479 kts | 141° |
| 2026-04-20 09:13 | 51.50548 | -105.72681 | 21994 ft | 482 kts | 141° |
| 2026-04-20 09:13 | 51.48126 | -105.69024 | 22418 ft | 486 kts | 141° |
| 2026-04-20 09:14 | 51.45658 | -105.65301 | 22873 ft | 489 kts | 141° |
| 2026-04-20 09:14 | 51.43168 | -105.61552 | 23318 ft | 493 kts | 141° |
| 2026-04-20 09:14 | 51.40659 | -105.57780 | 23722 ft | 496 kts | 141° |
| 2026-04-20 09:14 | 51.38138 | -105.53994 | 24121 ft | 499 kts | 141° |
| 2026-04-20 09:15 | 51.35601 | -105.50192 | 24518 ft | 501 kts | 141° |
| 2026-04-20 09:15 | 51.33047 | -105.46373 | 24940 ft | 504 kts | 141° |
| 2026-04-20 09:15 | 51.30468 | -105.42554 | 25368 ft | 506 kts | 141° |
| 2026-04-20 09:15 | 51.27875 | -105.38727 | 25789 ft | 509 kts | 141° |
| 2026-04-20 09:16 | 51.25267 | -105.34875 | 26201 ft | 512 kts | 141° |
| 2026-04-20 09:16 | 51.22652 | -105.31006 | 26596 ft | 515 kts | 141° |
| 2026-04-20 09:16 | 51.20019 | -105.27107 | 27012 ft | 518 kts | 141° |
| 2026-04-20 09:16 | 51.17378 | -105.23195 | 27405 ft | 520 kts | 141° |
| 2026-04-20 09:17 | 51.14717 | -105.19257 | 27802 ft | 523 kts | 141° |
| 2026-04-20 09:17 | 51.12036 | -105.15297 | 28199 ft | 526 kts | 141° |
| 2026-04-20 09:17 | 51.09349 | -105.11333 | 28589 ft | 529 kts | 141° |
| 2026-04-20 09:17 | 51.06641 | -105.07346 | 28970 ft | 531 kts | 142° |
| 2026-04-20 09:18 | 51.03919 | -105.03345 | 29357 ft | 534 kts | 142° |
| 2026-04-20 09:18 | 51.02110 | -105.00690 | 29569 ft | 536 kts | 142° |
| 2026-04-20 09:18 | 50.99360 | -104.96662 | 29917 ft | 539 kts | 142° |
| 2026-04-20 09:18 | 50.96602 | -104.92626 | 30203 ft | 541 kts | 142° |
| 2026-04-20 09:19 | 50.93826 | -104.88573 | 30474 ft | 543 kts | 142° |
| 2026-04-20 09:19 | 50.91044 | -104.84515 | 30730 ft | 545 kts | 142° |
| 2026-04-20 09:19 | 50.88243 | -104.80438 | 30968 ft | 547 kts | 142° |
| 2026-04-20 09:19 | 50.85440 | -104.76366 | 31263 ft | 547 kts | 142° |
| 2026-04-20 09:20 | 50.82637 | -104.72298 | 31572 ft | 546 kts | 142° |
| 2026-04-20 09:20 | 50.79837 | -104.68241 | 31888 ft | 546 kts | 142° |
| 2026-04-20 09:20 | 50.77037 | -104.64193 | 32182 ft | 545 kts | 142° |
| 2026-04-20 09:20 | 50.74236 | -104.60150 | 32471 ft | 545 kts | 142° |
| 2026-04-20 09:21 | 50.71428 | -104.56113 | 32755 ft | 544 kts | 142° |
| 2026-04-20 09:21 | 50.68624 | -104.52116 | 33020 ft | 544 kts | 142° |
| 2026-04-20 09:21 | 50.65810 | -104.48116 | 33093 ft | 546 kts | 142° |
| 2026-04-20 09:22 | 50.60195 | -104.40122 | 33114 ft | 548 kts | 142° |
| 2026-04-20 09:22 | 50.54545 | -104.32061 | 33120 ft | 548 kts | 142° |
| 2026-04-20 09:23 | 50.48889 | -104.24011 | 33134 ft | 549 kts | 142° |
| 2026-04-20 09:23 | 50.43224 | -104.15978 | 33156 ft | 549 kts | 142° |
| 2026-04-20 09:24 | 50.37547 | -104.07958 | 33175 ft | 549 kts | 142° |
| 2026-04-20 09:24 | 50.31868 | -103.99962 | 33177 ft | 549 kts | 142° |
| 2026-04-20 09:25 | 50.26182 | -103.91983 | 33181 ft | 549 kts | 142° |
| 2026-04-20 09:25 | 50.20484 | -103.84015 | 33189 ft | 550 kts | 142° |
| 2026-04-20 09:26 | 50.14780 | -103.76063 | 33191 ft | 550 kts | 142° |
| 2026-04-20 09:26 | 50.09067 | -103.68138 | 33198 ft | 550 kts | 142° |
| 2026-04-20 09:27 | 50.03323 | -103.60256 | 33200 ft | 550 kts | 142° |
| 2026-04-20 09:27 | 49.97579 | -103.52365 | 33201 ft | 551 kts | 142° |
| 2026-04-20 09:28 | 49.91841 | -103.44477 | 33208 ft | 551 kts | 142° |
| 2026-04-20 09:28 | 49.86142 | -103.36660 | 33214 ft | 551 kts | 142° |
| 2026-04-20 09:29 | 49.80390 | -103.28799 | 33210 ft | 551 kts | 142° |
| 2026-04-20 09:29 | 49.74633 | -103.20957 | 33221 ft | 551 kts | 142° |
| 2026-04-20 09:30 | 49.68868 | -103.13133 | 33225 ft | 551 kts | 142° |
| 2026-04-20 09:30 | 49.63098 | -103.05327 | 33222 ft | 552 kts | 142° |
| 2026-04-20 09:31 | 49.57321 | -102.97537 | 33238 ft | 551 kts | 142° |
| 2026-04-20 09:31 | 49.51541 | -102.89768 | 33213 ft | 551 kts | 142° |
| 2026-04-20 09:32 | 49.45747 | -102.82026 | 33206 ft | 552 kts | 142° |
| 2026-04-20 09:32 | 49.39966 | -102.74373 | 33193 ft | 552 kts | 142° |
| 2026-04-20 09:33 | 49.34154 | -102.66666 | 33197 ft | 552 kts | 142° |
| 2026-04-20 09:33 | 49.28343 | -102.58958 | 33200 ft | 553 kts | 142° |
| 2026-04-20 09:34 | 49.22522 | -102.51256 | 33210 ft | 553 kts | 142° |
| 2026-04-20 09:34 | 49.13772 | -102.39731 | 33230 ft | 553 kts | 142° |
| 2026-04-20 09:35 | 49.07934 | -102.32073 | 33230 ft | 553 kts | 142° |
| 2026-04-20 09:35 | 49.02096 | -102.24440 | 33230 ft | 553 kts | 142° |
| 2026-04-20 09:36 | 48.99175 | -102.20630 | 33026 ft | 551 kts | 142° |
| 2026-04-20 09:36 | 48.96268 | -102.16844 | 32974 ft | 550 kts | 142° |
| 2026-04-20 09:36 | 48.90452 | -102.09289 | 32962 ft | 550 kts | 142° |
| 2026-04-20 09:37 | 48.84628 | -102.01750 | 32972 ft | 550 kts | 142° |
| 2026-04-20 09:37 | 48.78784 | -101.94267 | 32972 ft | 550 kts | 142° |
| 2026-04-20 09:38 | 48.72980 | -101.86838 | 32978 ft | 550 kts | 142° |
| 2026-04-20 09:38 | 48.67139 | -101.79353 | 32989 ft | 550 kts | 142° |
| 2026-04-20 09:39 | 48.61300 | -101.71883 | 32982 ft | 549 kts | 142° |
| 2026-04-20 09:39 | 48.55460 | -101.64436 | 32978 ft | 549 kts | 142° |
| 2026-04-20 09:40 | 48.49615 | -101.57009 | 32968 ft | 549 kts | 142° |
| 2026-04-20 09:40 | 48.43765 | -101.49599 | 32958 ft | 549 kts | 142° |
| 2026-04-20 09:41 | 48.37798 | -101.42457 | 32959 ft | 548 kts | 146° |
| 2026-04-20 09:41 | 48.31658 | -101.35684 | 32996 ft | 547 kts | 146° |
| 2026-04-20 09:42 | 48.25496 | -101.28954 | 32998 ft | 547 kts | 146° |
| 2026-04-20 09:42 | 48.19353 | -101.22201 | 32999 ft | 547 kts | 146° |
| 2026-04-20 09:43 | 48.13216 | -101.15444 | 33008 ft | 547 kts | 146° |
| 2026-04-20 09:43 | 48.07080 | -101.08706 | 33028 ft | 547 kts | 146° |
| 2026-04-20 09:44 | 48.00931 | -101.01979 | 33050 ft | 547 kts | 146° |
| 2026-04-20 09:44 | 47.94784 | -100.95276 | 33075 ft | 547 kts | 146° |
| 2026-04-20 09:45 | 47.88673 | -100.88633 | 33080 ft | 547 kts | 146° |
| 2026-04-20 09:45 | 47.82511 | -100.81953 | 33090 ft | 547 kts | 146° |
| 2026-04-20 09:46 | 47.76346 | -100.75290 | 33096 ft | 547 kts | 146° |
| 2026-04-20 09:46 | 47.70174 | -100.68679 | 33107 ft | 547 kts | 146° |
| 2026-04-20 09:47 | 47.63994 | -100.62081 | 33116 ft | 547 kts | 146° |
| 2026-04-20 09:47 | 47.57808 | -100.55464 | 33123 ft | 547 kts | 146° |
| 2026-04-20 09:48 | 47.51630 | -100.48865 | 33132 ft | 548 kts | 146° |
| 2026-04-20 09:48 | 47.45445 | -100.42278 | 33144 ft | 548 kts | 146° |
| 2026-04-20 09:49 | 47.39257 | -100.35709 | 33151 ft | 548 kts | 146° |
| 2026-04-20 09:49 | 47.33062 | -100.29152 | 33155 ft | 548 kts | 146° |
| 2026-04-20 09:50 | 47.26905 | -100.22656 | 33165 ft | 548 kts | 146° |
| 2026-04-20 09:50 | 47.20701 | -100.16128 | 33173 ft | 548 kts | 146° |
| 2026-04-20 09:51 | 47.14489 | -100.09611 | 33171 ft | 548 kts | 146° |
| 2026-04-20 09:51 | 47.08275 | -100.03111 | 33181 ft | 548 kts | 146° |
| 2026-04-20 09:52 | 47.02047 | -99.96655 | 33180 ft | 548 kts | 146° |
| 2026-04-20 09:52 | 46.95814 | -99.90210 | 33182 ft | 548 kts | 146° |
| 2026-04-20 09:53 | 46.89582 | -99.83756 | 33185 ft | 549 kts | 146° |
| 2026-04-20 09:53 | 46.83355 | -99.77316 | 33183 ft | 549 kts | 146° |
| 2026-04-20 09:54 | 46.77118 | -99.70885 | 33185 ft | 549 kts | 146° |
| 2026-04-20 09:54 | 46.70879 | -99.64471 | 33192 ft | 549 kts | 146° |
| 2026-04-20 09:55 | 46.64638 | -99.58076 | 33194 ft | 549 kts | 146° |
| 2026-04-20 09:55 | 46.58391 | -99.51691 | 33193 ft | 549 kts | 146° |
| 2026-04-20 09:56 | 46.52137 | -99.45319 | 33195 ft | 549 kts | 146° |
| 2026-04-20 09:56 | 46.45926 | -99.39008 | 33200 ft | 549 kts | 146° |
| 2026-04-20 09:57 | 46.39629 | -99.32628 | 33201 ft | 548 kts | 146° |
| 2026-04-20 09:57 | 46.33395 | -99.26371 | 33205 ft | 548 kts | 146° |
| 2026-04-20 09:58 | 46.27122 | -99.20084 | 33209 ft | 549 kts | 146° |
| 2026-04-20 09:58 | 46.20855 | -99.13794 | 33216 ft | 549 kts | 146° |
| 2026-04-20 09:59 | 46.14589 | -99.07515 | 33225 ft | 549 kts | 146° |
| 2026-04-20 09:59 | 46.08309 | -99.01241 | 33230 ft | 549 kts | 146° |
| 2026-04-20 10:00 | 46.02023 | -98.94980 | 33220 ft | 549 kts | 146° |
| 2026-04-20 10:00 | 45.95731 | -98.88730 | 33239 ft | 549 kts | 146° |
| 2026-04-20 10:01 | 45.89441 | -98.82500 | 33257 ft | 549 kts | 146° |
| 2026-04-20 10:01 | 45.83113 | -98.76360 | 33249 ft | 549 kts | 147° |
| 2026-04-20 10:02 | 45.76788 | -98.70352 | 33260 ft | 549 kts | 147° |
| 2026-04-20 10:02 | 45.70420 | -98.64312 | 33245 ft | 549 kts | 147° |
| 2026-04-20 10:03 | 45.64057 | -98.58274 | 33245 ft | 549 kts | 147° |
| 2026-04-20 10:03 | 45.57692 | -98.52244 | 33224 ft | 549 kts | 147° |
| 2026-04-20 10:04 | 45.51315 | -98.46221 | 33221 ft | 549 kts | 147° |
| 2026-04-20 10:04 | 45.44945 | -98.40222 | 33210 ft | 549 kts | 147° |
| 2026-04-20 10:05 | 45.38566 | -98.34231 | 33217 ft | 549 kts | 147° |
| 2026-04-20 10:05 | 45.32181 | -98.28251 | 33220 ft | 549 kts | 147° |
| 2026-04-20 10:06 | 45.26873 | -98.23292 | 33246 ft | 549 kts | 147° |
| 2026-04-20 10:06 | 45.20483 | -98.17338 | 33244 ft | 549 kts | 147° |
| 2026-04-20 10:07 | 45.14082 | -98.11415 | 33271 ft | 550 kts | 147° |
| 2026-04-20 10:07 | 45.06629 | -98.04547 | 33255 ft | 550 kts | 147° |
| 2026-04-20 10:08 | 45.01258 | -97.99589 | 33277 ft | 550 kts | 147° |
| 2026-04-20 10:08 | 44.94854 | -97.93685 | 33269 ft | 550 kts | 147° |
| 2026-04-20 10:09 | 44.88494 | -97.87837 | 33279 ft | 549 kts | 147° |
| 2026-04-20 10:09 | 44.82082 | -97.81957 | 33273 ft | 550 kts | 147° |
| 2026-04-20 10:10 | 44.75666 | -97.76092 | 33277 ft | 550 kts | 147° |
| 2026-04-20 10:10 | 44.69245 | -97.70237 | 33278 ft | 550 kts | 147° |
| 2026-04-20 10:11 | 44.62823 | -97.64396 | 33290 ft | 550 kts | 147° |
| 2026-04-20 10:11 | 44.56396 | -97.58567 | 33281 ft | 550 kts | 147° |
| 2026-04-20 10:12 | 44.49966 | -97.52751 | 33298 ft | 550 kts | 147° |
| 2026-04-20 10:12 | 44.43521 | -97.46967 | 33298 ft | 550 kts | 148° |
| 2026-04-20 10:13 | 44.37066 | -97.41188 | 33320 ft | 550 kts | 148° |
| 2026-04-20 10:13 | 44.30663 | -97.35449 | 33310 ft | 551 kts | 148° |
| 2026-04-20 10:14 | 44.24210 | -97.29673 | 33309 ft | 551 kts | 148° |
| 2026-04-20 10:14 | 44.17756 | -97.23910 | 33281 ft | 551 kts | 148° |
| 2026-04-20 10:15 | 44.11297 | -97.18159 | 33277 ft | 551 kts | 148° |
| 2026-04-20 10:15 | 44.04835 | -97.12422 | 33260 ft | 551 kts | 148° |
| 2026-04-20 10:16 | 43.98362 | -97.06690 | 33264 ft | 551 kts | 148° |
| 2026-04-20 10:16 | 43.91892 | -97.00976 | 33263 ft | 551 kts | 148° |
| 2026-04-20 10:17 | 43.85417 | -96.95272 | 33294 ft | 551 kts | 148° |
| 2026-04-20 10:17 | 43.78936 | -96.89578 | 33295 ft | 552 kts | 148° |
| 2026-04-20 10:18 | 43.72446 | -96.83923 | 33300 ft | 552 kts | 148° |
| 2026-04-20 10:18 | 43.65950 | -96.78270 | 33274 ft | 552 kts | 148° |
| 2026-04-20 10:19 | 43.59912 | -96.71781 | 33288 ft | 551 kts | 134° |
| 2026-04-20 10:19 | 43.54757 | -96.63974 | 33278 ft | 550 kts | 129° |
| 2026-04-20 10:20 | 43.49721 | -96.56008 | 33298 ft | 551 kts | 130° |
| 2026-04-20 10:20 | 43.44574 | -96.48184 | 33300 ft | 552 kts | 131° |
| 2026-04-20 10:21 | 43.39353 | -96.40432 | 33315 ft | 552 kts | 131° |
| 2026-04-20 10:21 | 43.34128 | -96.32712 | 33307 ft | 552 kts | 131° |
| 2026-04-20 10:22 | 43.28923 | -96.25024 | 33316 ft | 552 kts | 131° |
| 2026-04-20 10:22 | 43.23690 | -96.17307 | 33300 ft | 553 kts | 131° |
| 2026-04-20 10:23 | 43.18447 | -96.09596 | 33307 ft | 553 kts | 131° |
| 2026-04-20 10:23 | 43.13192 | -96.01890 | 33287 ft | 553 kts | 132° |
| 2026-04-20 10:24 | 43.07936 | -95.94203 | 33300 ft | 553 kts | 132° |
| 2026-04-20 10:24 | 43.02653 | -95.86539 | 33291 ft | 554 kts | 132° |
| 2026-04-20 10:25 | 42.97360 | -95.78888 | 33312 ft | 554 kts | 132° |
| 2026-04-20 10:25 | 42.92076 | -95.71235 | 33311 ft | 554 kts | 132° |
| 2026-04-20 10:26 | 42.86791 | -95.63586 | 33318 ft | 554 kts | 132° |
| 2026-04-20 10:26 | 42.81502 | -95.55952 | 33300 ft | 554 kts | 132° |
| 2026-04-20 10:27 | 42.76195 | -95.48314 | 33318 ft | 555 kts | 132° |
| 2026-04-20 10:27 | 42.70924 | -95.40748 | 33307 ft | 555 kts | 133° |
| 2026-04-20 10:28 | 42.65612 | -95.33145 | 33317 ft | 555 kts | 133° |
| 2026-04-20 10:28 | 42.60282 | -95.25537 | 33306 ft | 555 kts | 133° |
| 2026-04-20 10:29 | 42.54954 | -95.17950 | 33313 ft | 556 kts | 133° |
| 2026-04-20 10:29 | 42.49619 | -95.10375 | 33312 ft | 556 kts | 133° |
| 2026-04-20 10:30 | 42.44253 | -95.02827 | 33335 ft | 556 kts | 133° |
| 2026-04-20 10:30 | 42.38876 | -94.95295 | 33338 ft | 557 kts | 133° |
| 2026-04-20 10:31 | 42.33499 | -94.87759 | 33348 ft | 557 kts | 133° |
| 2026-04-20 10:31 | 42.28119 | -94.80227 | 33332 ft | 557 kts | 133° |
| 2026-04-20 10:32 | 42.22732 | -94.72705 | 33336 ft | 557 kts | 133° |
| 2026-04-20 10:32 | 42.17335 | -94.65189 | 33318 ft | 558 kts | 134° |
| 2026-04-20 10:33 | 42.11933 | -94.57687 | 33331 ft | 558 kts | 134° |
| 2026-04-20 10:33 | 42.06558 | -94.50241 | 33327 ft | 558 kts | 134° |
| 2026-04-20 10:34 | 42.01140 | -94.42755 | 33348 ft | 558 kts | 134° |
| 2026-04-20 10:35 | 41.92997 | -94.31543 | 33318 ft | 559 kts | 134° |
| 2026-04-20 10:35 | 41.87559 | -94.24078 | 33303 ft | 559 kts | 134° |
| 2026-04-20 10:36 | 41.82099 | -94.16644 | 33308 ft | 559 kts | 134° |
| 2026-04-20 10:36 | 41.76630 | -94.09218 | 33304 ft | 560 kts | 134° |
| 2026-04-20 10:37 | 41.71168 | -94.01788 | 33306 ft | 560 kts | 134° |
| 2026-04-20 10:37 | 41.65702 | -93.94360 | 33320 ft | 560 kts | 135° |
| 2026-04-20 10:38 | 41.60237 | -93.86952 | 33329 ft | 560 kts | 135° |
| 2026-04-20 10:38 | 41.54802 | -93.79610 | 33004 ft | 556 kts | 132° |
| 2026-04-20 10:38 | 41.52088 | -93.75953 | 33272 ft | 554 kts | 131° |
| 2026-04-20 10:39 | 41.49379 | -93.72304 | 33315 ft | 551 kts | 131° |
| 2026-04-20 10:39 | 41.43977 | -93.65052 | 33332 ft | 551 kts | 132° |
| 2026-04-20 10:40 | 41.38496 | -93.57908 | 33333 ft | 551 kts | 133° |
| 2026-04-20 10:40 | 41.32985 | -93.50808 | 33333 ft | 551 kts | 133° |
| 2026-04-20 10:41 | 41.27478 | -93.43712 | 33330 ft | 551 kts | 133° |
| 2026-04-20 10:41 | 41.21979 | -93.36625 | 33329 ft | 551 kts | 133° |
| 2026-04-20 10:42 | 41.16476 | -93.29547 | 33323 ft | 551 kts | 133° |
| 2026-04-20 10:42 | 41.11002 | -93.22525 | 33326 ft | 550 kts | 133° |
| 2026-04-20 10:43 | 41.05495 | -93.15480 | 33327 ft | 550 kts | 133° |
| 2026-04-20 10:43 | 40.99988 | -93.08451 | 33332 ft | 550 kts | 133° |
| 2026-04-20 10:44 | 40.94474 | -93.01430 | 33334 ft | 550 kts | 133° |
| 2026-04-20 10:44 | 40.88959 | -92.94426 | 33343 ft | 550 kts | 133° |
| 2026-04-20 10:45 | 40.83437 | -92.87440 | 33342 ft | 549 kts | 133° |
| 2026-04-20 10:45 | 40.77902 | -92.80491 | 33341 ft | 549 kts | 133° |
| 2026-04-20 10:46 | 40.72368 | -92.73541 | 33343 ft | 549 kts | 133° |
| 2026-04-20 10:46 | 40.66880 | -92.66646 | 33344 ft | 549 kts | 133° |
| 2026-04-20 10:47 | 40.61355 | -92.59715 | 33350 ft | 549 kts | 133° |
| 2026-04-20 10:47 | 40.55815 | -92.52785 | 33354 ft | 549 kts | 133° |
| 2026-04-20 10:48 | 40.50283 | -92.45883 | 33356 ft | 548 kts | 133° |
| 2026-04-20 10:48 | 40.44751 | -92.38993 | 33358 ft | 548 kts | 133° |
| 2026-04-20 10:49 | 40.39215 | -92.32113 | 33354 ft | 548 kts | 134° |
| 2026-04-20 10:49 | 40.33685 | -92.25256 | 33349 ft | 547 kts | 134° |
| 2026-04-20 10:50 | 40.28143 | -92.18404 | 33354 ft | 547 kts | 134° |
| 2026-04-20 10:50 | 40.22597 | -92.11584 | 33351 ft | 547 kts | 134° |
| 2026-04-20 10:51 | 40.17052 | -92.04773 | 33353 ft | 547 kts | 134° |
| 2026-04-20 10:51 | 40.11514 | -91.97975 | 33349 ft | 546 kts | 134° |
| 2026-04-20 10:52 | 40.05971 | -91.91185 | 33346 ft | 546 kts | 134° |
| 2026-04-20 10:52 | 40.00422 | -91.84404 | 33344 ft | 546 kts | 134° |
| 2026-04-20 10:53 | 39.94914 | -91.77690 | 33343 ft | 545 kts | 134° |
| 2026-04-20 10:53 | 39.89333 | -91.70902 | 33343 ft | 545 kts | 135° |
| 2026-04-20 10:54 | 39.83790 | -91.64176 | 33342 ft | 545 kts | 135° |
| 2026-04-20 10:54 | 39.78275 | -91.57501 | 33339 ft | 544 kts | 135° |
| 2026-04-20 10:55 | 39.72733 | -91.50806 | 33338 ft | 544 kts | 135° |
| 2026-04-20 10:55 | 39.67184 | -91.44124 | 33263 ft | 544 kts | 135° |
| 2026-04-20 10:56 | 39.61626 | -91.37460 | 33224 ft | 543 kts | 135° |
| 2026-04-20 10:56 | 39.57014 | -91.31918 | 33204 ft | 543 kts | 135° |
| 2026-04-20 10:57 | 39.51478 | -91.25260 | 33200 ft | 543 kts | 135° |
| 2026-04-20 10:57 | 39.45936 | -91.18606 | 33218 ft | 543 kts | 135° |
| 2026-04-20 10:58 | 39.40398 | -91.11972 | 33258 ft | 542 kts | 135° |
| 2026-04-20 10:58 | 39.34858 | -91.05353 | 33308 ft | 542 kts | 135° |
| 2026-04-20 10:59 | 39.29316 | -90.98747 | 33337 ft | 542 kts | 135° |
| 2026-04-20 10:59 | 39.23776 | -90.92158 | 33335 ft | 542 kts | 135° |
| 2026-04-20 11:00 | 39.18228 | -90.85574 | 33336 ft | 542 kts | 135° |
| 2026-04-20 11:00 | 39.12676 | -90.79001 | 33335 ft | 542 kts | 135° |
| 2026-04-20 11:01 | 39.07127 | -90.72447 | 33334 ft | 541 kts | 136° |
| 2026-04-20 11:01 | 39.01565 | -90.65930 | 33333 ft | 540 kts | 136° |
| 2026-04-20 11:02 | 38.96011 | -90.59425 | 33355 ft | 540 kts | 136° |
| 2026-04-20 11:02 | 38.90465 | -90.52922 | 33357 ft | 540 kts | 136° |
| 2026-04-20 11:03 | 38.84957 | -90.46470 | 33361 ft | 539 kts | 136° |
| 2026-04-20 11:03 | 38.79712 | -90.39616 | 33358 ft | 537 kts | 129° |
| 2026-04-20 11:04 | 38.74851 | -90.32354 | 33359 ft | 537 kts | 128° |
| 2026-04-20 11:04 | 38.70026 | -90.25063 | 33357 ft | 537 kts | 128° |
| 2026-04-20 11:05 | 38.65156 | -90.17819 | 33587 ft | 539 kts | 136° |
| 2026-04-20 11:05 | 38.62670 | -90.14154 | 33392 ft | 549 kts | 139° |
| 2026-04-20 11:05 | 38.60147 | -90.10456 | 33362 ft | 554 kts | 139° |
| 2026-04-20 11:06 | 38.55073 | -90.03021 | 33355 ft | 556 kts | 139° |
| 2026-04-20 11:06 | 38.49987 | -89.95566 | 33317 ft | 556 kts | 139° |
| 2026-04-20 11:07 | 38.44898 | -89.88121 | 33320 ft | 557 kts | 139° |
| 2026-04-20 11:07 | 38.39798 | -89.80683 | 33322 ft | 557 kts | 139° |
| 2026-04-20 11:08 | 38.34693 | -89.73256 | 33345 ft | 557 kts | 140° |
| 2026-04-20 11:08 | 38.29579 | -89.65834 | 33349 ft | 557 kts | 140° |
| 2026-04-20 11:09 | 38.24447 | -89.58443 | 33358 ft | 557 kts | 140° |
| 2026-04-20 11:09 | 38.19304 | -89.51049 | 33348 ft | 558 kts | 140° |
| 2026-04-20 11:10 | 38.14167 | -89.43651 | 33345 ft | 559 kts | 140° |
| 2026-04-20 11:10 | 38.09022 | -89.36249 | 33342 ft | 559 kts | 140° |
| 2026-04-20 11:11 | 38.03901 | -89.28900 | 33330 ft | 559 kts | 140° |
| 2026-04-20 11:11 | 37.98741 | -89.21511 | 33335 ft | 559 kts | 140° |
| 2026-04-20 11:12 | 37.93571 | -89.14128 | 33335 ft | 560 kts | 140° |
| 2026-04-20 11:12 | 37.88404 | -89.06765 | 33338 ft | 559 kts | 140° |
| 2026-04-20 11:13 | 37.83234 | -88.99415 | 33346 ft | 558 kts | 140° |
| 2026-04-20 11:13 | 37.78050 | -88.92103 | 33344 ft | 557 kts | 140° |
| 2026-04-20 11:14 | 37.72870 | -88.84840 | 33342 ft | 555 kts | 140° |
| 2026-04-20 11:14 | 37.67708 | -88.77597 | 33341 ft | 554 kts | 140° |
| 2026-04-20 11:15 | 37.62549 | -88.70364 | 33324 ft | 553 kts | 140° |
| 2026-04-20 11:15 | 37.57399 | -88.63169 | 33321 ft | 552 kts | 140° |
| 2026-04-20 11:16 | 37.52255 | -88.55990 | 33315 ft | 550 kts | 141° |
| 2026-04-20 11:16 | 37.47130 | -88.48849 | 33307 ft | 549 kts | 141° |
| 2026-04-20 11:17 | 37.42006 | -88.41724 | 33309 ft | 548 kts | 141° |
| 2026-04-20 11:17 | 37.36926 | -88.34675 | 33307 ft | 547 kts | 141° |
| 2026-04-20 11:18 | 37.31818 | -88.27603 | 33308 ft | 546 kts | 141° |
| 2026-04-20 11:18 | 37.26709 | -88.20550 | 33305 ft | 545 kts | 141° |
| 2026-04-20 11:19 | 37.21608 | -88.13507 | 33301 ft | 545 kts | 141° |
| 2026-04-20 11:19 | 37.16519 | -88.06478 | 33298 ft | 544 kts | 141° |
| 2026-04-20 11:20 | 37.11430 | -87.99461 | 33294 ft | 544 kts | 141° |
| 2026-04-20 11:20 | 37.06337 | -87.92456 | 33296 ft | 543 kts | 141° |
| 2026-04-20 11:21 | 37.01246 | -87.85468 | 33301 ft | 543 kts | 142° |
| 2026-04-20 11:21 | 36.96180 | -87.78531 | 33294 ft | 543 kts | 142° |
| 2026-04-20 11:22 | 36.91090 | -87.71575 | 33301 ft | 542 kts | 142° |
| 2026-04-20 11:22 | 36.85989 | -87.64619 | 33302 ft | 542 kts | 142° |
| 2026-04-20 11:23 | 36.80889 | -87.57679 | 33305 ft | 542 kts | 142° |
| 2026-04-20 11:23 | 36.75791 | -87.50757 | 33279 ft | 542 kts | 142° |
| 2026-04-20 11:24 | 36.70674 | -87.43859 | 33277 ft | 542 kts | 142° |
| 2026-04-20 11:24 | 36.65549 | -87.36986 | 33296 ft | 540 kts | 144° |
| 2026-04-20 11:24 | 36.62807 | -87.33865 | 33298 ft | 527 kts | 152° |
| 2026-04-20 11:25 | 36.59817 | -87.31329 | 33301 ft | 513 kts | 161° |
| 2026-04-20 11:25 | 36.53492 | -87.27506 | 33303 ft | 504 kts | 167° |
| 2026-04-20 11:26 | 36.47099 | -87.23878 | 33308 ft | 506 kts | 166° |
| 2026-04-20 11:26 | 36.40793 | -87.20029 | 33304 ft | 510 kts | 164° |
| 2026-04-20 11:27 | 36.34458 | -87.16027 | 33300 ft | 511 kts | 164° |
| 2026-04-20 11:27 | 36.28125 | -87.12015 | 33297 ft | 512 kts | 164° |
| 2026-04-20 11:28 | 36.21770 | -87.08010 | 33466 ft | 512 kts | 164° |
| 2026-04-20 11:28 | 36.18559 | -87.06001 | 33336 ft | 522 kts | 162° |
| 2026-04-20 11:28 | 36.15281 | -87.03955 | 33306 ft | 532 kts | 162° |
| 2026-04-20 11:29 | 36.08595 | -86.99773 | 33293 ft | 544 kts | 161° |
| 2026-04-20 11:29 | 36.01814 | -86.95519 | 33301 ft | 547 kts | 161° |
| 2026-04-20 11:30 | 35.95027 | -86.91270 | 33301 ft | 547 kts | 162° |
| 2026-04-20 11:30 | 35.88229 | -86.87033 | 33314 ft | 547 kts | 162° |
| 2026-04-20 11:31 | 35.81421 | -86.82820 | 33317 ft | 547 kts | 162° |
| 2026-04-20 11:31 | 35.74612 | -86.78606 | 33326 ft | 548 kts | 162° |
| 2026-04-20 11:32 | 35.67802 | -86.74390 | 33328 ft | 548 kts | 162° |
| 2026-04-20 11:32 | 35.61035 | -86.70205 | 33330 ft | 548 kts | 162° |
| 2026-04-20 11:33 | 35.54226 | -86.66003 | 33330 ft | 548 kts | 162° |
| 2026-04-20 11:33 | 35.47411 | -86.61806 | 33336 ft | 548 kts | 162° |
| 2026-04-20 11:34 | 35.40603 | -86.57622 | 33331 ft | 548 kts | 162° |
| 2026-04-20 11:34 | 35.33789 | -86.53441 | 33336 ft | 547 kts | 162° |
| 2026-04-20 11:35 | 35.26983 | -86.49274 | 33355 ft | 547 kts | 162° |
| 2026-04-20 11:35 | 35.20179 | -86.45115 | 33355 ft | 546 kts | 162° |
| 2026-04-20 11:36 | 35.13376 | -86.40968 | 33363 ft | 546 kts | 162° |
| 2026-04-20 11:36 | 35.06577 | -86.36846 | 33357 ft | 545 kts | 162° |
| 2026-04-20 11:37 | 34.99787 | -86.32730 | 33353 ft | 544 kts | 162° |
| 2026-04-20 11:37 | 34.89614 | -86.26564 | 33341 ft | 544 kts | 163° |
| 2026-04-20 11:38 | 34.82879 | -86.22489 | 33338 ft | 544 kts | 163° |
| 2026-04-20 11:38 | 34.76110 | -86.18402 | 33340 ft | 543 kts | 163° |
| 2026-04-20 11:39 | 34.69338 | -86.14321 | 33336 ft | 543 kts | 163° |
| 2026-04-20 11:39 | 34.62562 | -86.10246 | 33344 ft | 543 kts | 163° |
| 2026-04-20 11:40 | 34.55795 | -86.06183 | 33348 ft | 543 kts | 163° |
| 2026-04-20 11:40 | 34.49018 | -86.02121 | 33354 ft | 543 kts | 163° |
| 2026-04-20 11:41 | 34.42228 | -85.98059 | 33350 ft | 543 kts | 163° |
| 2026-04-20 11:41 | 34.35498 | -85.94050 | 33356 ft | 543 kts | 163° |
| 2026-04-20 11:42 | 34.28714 | -85.90023 | 33357 ft | 543 kts | 163° |
| 2026-04-20 11:42 | 34.23021 | -85.86639 | 33365 ft | 543 kts | 163° |
| 2026-04-20 11:43 | 34.16233 | -85.82607 | 33371 ft | 544 kts | 163° |
| 2026-04-20 11:43 | 34.09488 | -85.78606 | 33370 ft | 544 kts | 163° |
| 2026-04-20 11:44 | 34.02691 | -85.74583 | 33366 ft | 544 kts | 163° |
| 2026-04-20 11:44 | 33.95885 | -85.70561 | 33362 ft | 545 kts | 163° |
| 2026-04-20 11:45 | 33.89076 | -85.66545 | 33358 ft | 545 kts | 163° |
| 2026-04-20 11:45 | 33.82254 | -85.62529 | 33359 ft | 546 kts | 163° |
| 2026-04-20 11:46 | 33.75422 | -85.58514 | 33361 ft | 546 kts | 163° |
| 2026-04-20 11:46 | 33.68597 | -85.54510 | 33358 ft | 546 kts | 163° |
| 2026-04-20 11:47 | 33.61755 | -85.50510 | 33368 ft | 547 kts | 163° |
| 2026-04-20 11:47 | 33.54914 | -85.46527 | 33380 ft | 547 kts | 163° |
| 2026-04-20 11:48 | 33.48063 | -85.42535 | 33375 ft | 547 kts | 163° |
| 2026-04-20 11:48 | 33.41258 | -85.38570 | 33370 ft | 548 kts | 163° |
| 2026-04-20 11:49 | 33.34402 | -85.34583 | 33361 ft | 548 kts | 163° |
| 2026-04-20 11:49 | 33.27536 | -85.30598 | 33354 ft | 548 kts | 163° |
| 2026-04-20 11:50 | 33.20673 | -85.26621 | 33354 ft | 548 kts | 163° |
| 2026-04-20 11:50 | 33.13803 | -85.22648 | 33353 ft | 549 kts | 163° |
| 2026-04-20 11:51 | 33.06927 | -85.18677 | 33360 ft | 549 kts | 163° |
| 2026-04-20 11:51 | 33.00047 | -85.14712 | 33364 ft | 549 kts | 163° |
| 2026-04-20 11:52 | 32.93163 | -85.10751 | 33364 ft | 549 kts | 163° |
| 2026-04-20 11:52 | 32.86270 | -85.06799 | 33356 ft | 549 kts | 163° |
| 2026-04-20 11:53 | 32.79378 | -85.02862 | 33340 ft | 550 kts | 163° |
| 2026-04-20 11:53 | 32.72484 | -84.98921 | 33339 ft | 550 kts | 163° |
| 2026-04-20 11:54 | 32.65636 | -84.95008 | 33323 ft | 550 kts | 163° |
| 2026-04-20 11:54 | 32.58742 | -84.91075 | 33325 ft | 550 kts | 163° |
| 2026-04-20 11:55 | 32.51842 | -84.87146 | 33324 ft | 550 kts | 163° |
| 2026-04-20 11:55 | 32.44943 | -84.83224 | 33326 ft | 550 kts | 163° |
| 2026-04-20 11:56 | 32.38042 | -84.79308 | 33324 ft | 550 kts | 163° |
| 2026-04-20 11:56 | 32.31141 | -84.75398 | 33311 ft | 550 kts | 163° |
| 2026-04-20 11:57 | 32.24249 | -84.71500 | 33320 ft | 549 kts | 163° |
| 2026-04-20 11:57 | 32.17355 | -84.67608 | 33313 ft | 549 kts | 163° |
| 2026-04-20 11:58 | 32.10458 | -84.63729 | 33316 ft | 548 kts | 163° |
| 2026-04-20 11:58 | 32.03565 | -84.59864 | 33318 ft | 548 kts | 163° |
| 2026-04-20 11:59 | 31.96724 | -84.56026 | 33315 ft | 548 kts | 163° |
| 2026-04-20 11:59 | 31.89839 | -84.52164 | 33314 ft | 548 kts | 163° |
| 2026-04-20 12:00 | 31.82950 | -84.48307 | 33309 ft | 548 kts | 163° |
| 2026-04-20 12:00 | 31.76059 | -84.44455 | 33315 ft | 548 kts | 163° |
| 2026-04-20 12:01 | 31.69134 | -84.40776 | 33323 ft | 540 kts | 170° |
| 2026-04-20 12:01 | 31.61994 | -84.38536 | 33328 ft | 526 kts | 178° |
| 2026-04-20 12:02 | 31.54825 | -84.36903 | 33347 ft | 525 kts | 179° |
| 2026-04-20 12:02 | 31.47654 | -84.35212 | 33343 ft | 526 kts | 178° |
| 2026-04-20 12:03 | 31.40485 | -84.33415 | 33339 ft | 527 kts | 178° |
| 2026-04-20 12:03 | 31.33324 | -84.31588 | 33321 ft | 526 kts | 178° |
| 2026-04-20 12:04 | 31.26172 | -84.29769 | 33324 ft | 526 kts | 178° |
| 2026-04-20 12:04 | 31.19026 | -84.27960 | 33324 ft | 525 kts | 177° |
| 2026-04-20 12:05 | 31.11878 | -84.26156 | 33322 ft | 525 kts | 177° |
| 2026-04-20 12:05 | 31.04742 | -84.24357 | 33318 ft | 524 kts | 177° |
| 2026-04-20 12:06 | 30.97615 | -84.22563 | 33310 ft | 524 kts | 177° |
| 2026-04-20 12:06 | 30.90498 | -84.20775 | 33300 ft | 523 kts | 177° |
| 2026-04-20 12:07 | 30.83426 | -84.19004 | 33301 ft | 523 kts | 177° |
| 2026-04-20 12:07 | 30.76318 | -84.17228 | 33297 ft | 522 kts | 177° |
| 2026-04-20 12:08 | 30.69162 | -84.15439 | 33327 ft | 524 kts | 177° |
| 2026-04-20 12:08 | 30.65652 | -84.14562 | 33670 ft | 523 kts | 177° |
| 2026-04-20 12:08 | 30.62101 | -84.13674 | 34015 ft | 522 kts | 177° |
| 2026-04-20 12:09 | 30.58552 | -84.12787 | 34353 ft | 521 kts | 177° |
| 2026-04-20 12:09 | 30.55009 | -84.11902 | 34608 ft | 521 kts | 178° |
| 2026-04-20 12:09 | 30.51468 | -84.11021 | 34844 ft | 521 kts | 178° |
| 2026-04-20 12:09 | 30.47921 | -84.10138 | 35063 ft | 522 kts | 178° |
| 2026-04-20 12:10 | 30.44370 | -84.09256 | 35234 ft | 522 kts | 178° |
| 2026-04-20 12:10 | 30.40815 | -84.08372 | 35274 ft | 523 kts | 178° |
| 2026-04-20 12:10 | 30.33782 | -84.05826 | 35283 ft | 542 kts | 163° |
| 2026-04-20 12:11 | 30.27156 | -84.01444 | 35282 ft | 552 kts | 155° |
| 2026-04-20 12:11 | 30.20648 | -83.96714 | 35275 ft | 552 kts | 156° |
| 2026-04-20 12:12 | 30.14070 | -83.92181 | 35279 ft | 550 kts | 157° |
| 2026-04-20 12:12 | 30.07444 | -83.87776 | 35278 ft | 549 kts | 158° |
| 2026-04-20 12:13 | 30.00806 | -83.83393 | 35282 ft | 549 kts | 158° |
| 2026-04-20 12:13 | 29.94225 | -83.79040 | 35282 ft | 549 kts | 158° |
| 2026-04-20 12:14 | 29.87596 | -83.74653 | 35275 ft | 549 kts | 158° |
| 2026-04-20 12:14 | 29.80951 | -83.70265 | 35271 ft | 549 kts | 158° |
| 2026-04-20 12:15 | 29.74316 | -83.65899 | 35260 ft | 549 kts | 158° |
| 2026-04-20 12:15 | 29.67682 | -83.61535 | 35255 ft | 549 kts | 158° |
| 2026-04-20 12:16 | 29.61042 | -83.57169 | 35251 ft | 549 kts | 158° |
| 2026-04-20 12:16 | 29.54403 | -83.52809 | 35254 ft | 549 kts | 158° |
| 2026-04-20 12:17 | 29.47808 | -83.48484 | 35252 ft | 549 kts | 158° |
| 2026-04-20 12:17 | 29.41163 | -83.44135 | 35250 ft | 550 kts | 158° |
| 2026-04-20 12:18 | 29.34510 | -83.39786 | 35243 ft | 550 kts | 158° |
| 2026-04-20 12:18 | 29.27822 | -83.35582 | 35237 ft | 546 kts | 161° |
| 2026-04-20 12:19 | 29.20952 | -83.31959 | 35234 ft | 542 kts | 164° |
| 2026-04-20 12:19 | 29.14034 | -83.28507 | 35230 ft | 542 kts | 164° |
| 2026-04-20 12:20 | 29.07128 | -83.25020 | 35225 ft | 543 kts | 164° |
| 2026-04-20 12:20 | 29.00223 | -83.21492 | 35225 ft | 544 kts | 163° |
| 2026-04-20 12:21 | 28.93321 | -83.17960 | 35222 ft | 544 kts | 163° |
| 2026-04-20 12:21 | 28.86404 | -83.14428 | 35206 ft | 544 kts | 164° |
| 2026-04-20 12:22 | 28.79495 | -83.10908 | 35207 ft | 544 kts | 164° |
| 2026-04-20 12:22 | 28.72574 | -83.07388 | 35202 ft | 544 kts | 164° |
| 2026-04-20 12:23 | 28.65655 | -83.03874 | 35203 ft | 545 kts | 164° |
| 2026-04-20 12:23 | 28.58722 | -83.00358 | 35193 ft | 545 kts | 164° |
| 2026-04-20 12:24 | 28.51834 | -82.96872 | 35188 ft | 545 kts | 164° |
| 2026-04-20 12:24 | 28.44903 | -82.93378 | 35188 ft | 545 kts | 165° |
| 2026-04-20 12:25 | 28.37984 | -82.89888 | 35181 ft | 543 kts | 165° |
| 2026-04-20 12:25 | 28.31083 | -82.86408 | 35179 ft | 542 kts | 165° |
| 2026-04-20 12:26 | 28.24184 | -82.82933 | 35175 ft | 542 kts | 165° |
| 2026-04-20 12:26 | 28.17298 | -82.79471 | 35180 ft | 541 kts | 165° |
| 2026-04-20 12:27 | 28.10428 | -82.76021 | 35178 ft | 540 kts | 165° |
| 2026-04-20 12:27 | 28.03554 | -82.72618 | 35180 ft | 535 kts | 168° |
| 2026-04-20 12:28 | 28.00050 | -82.71359 | 35181 ft | 523 kts | 176° |
| 2026-04-20 12:28 | 27.96514 | -82.70499 | 35179 ft | 516 kts | 180° |
| 2026-04-20 12:28 | 27.89447 | -82.69234 | 35171 ft | 513 kts | 182° |
| 2026-04-20 12:29 | 27.82397 | -82.67982 | 35143 ft | 513 kts | 181° |
| 2026-04-20 12:29 | 27.75400 | -82.66627 | 35141 ft | 513 kts | 180° |
| 2026-04-20 12:30 | 27.68368 | -82.65223 | 35157 ft | 513 kts | 180° |
| 2026-04-20 12:30 | 27.62481 | -82.64046 | 35145 ft | 512 kts | 180° |
| 2026-04-20 12:31 | 27.55463 | -82.62650 | 35139 ft | 512 kts | 180° |
| 2026-04-20 12:31 | 27.48461 | -82.61032 | 35142 ft | 517 kts | 175° |
| 2026-04-20 12:32 | 27.41491 | -82.58968 | 35142 ft | 519 kts | 174° |
| 2026-04-20 12:32 | 27.34571 | -82.56848 | 35145 ft | 518 kts | 174° |
| 2026-04-20 12:33 | 27.27619 | -82.54760 | 35142 ft | 517 kts | 174° |
| 2026-04-20 12:33 | 27.20673 | -82.52702 | 35132 ft | 516 kts | 174° |
| 2026-04-20 12:34 | 27.13730 | -82.50653 | 35137 ft | 516 kts | 174° |
| 2026-04-20 12:34 | 27.06788 | -82.48604 | 35136 ft | 516 kts | 174° |
| 2026-04-20 12:35 | 26.99844 | -82.46557 | 35134 ft | 516 kts | 174° |
| 2026-04-20 12:35 | 26.92914 | -82.44418 | 35132 ft | 521 kts | 168° |
| 2026-04-20 12:36 | 26.89556 | -82.42790 | 35132 ft | 532 kts | 158° |
| 2026-04-20 12:36 | 26.86414 | -82.40545 | 35128 ft | 542 kts | 148° |
| 2026-04-20 12:36 | 26.80800 | -82.34797 | 35125 ft | 549 kts | 140° |
| 2026-04-20 12:37 | 26.75311 | -82.28866 | 35115 ft | 547 kts | 142° |
| 2026-04-20 12:37 | 26.69638 | -82.23213 | 35110 ft | 545 kts | 144° |
| 2026-04-20 12:38 | 26.63879 | -82.17698 | 35101 ft | 544 kts | 145° |
| 2026-04-20 12:38 | 26.60995 | -82.14950 | 34975 ft | 545 kts | 145° |
| 2026-04-20 12:38 | 26.58110 | -82.12198 | 34532 ft | 545 kts | 145° |
| 2026-04-20 12:39 | 26.52379 | -82.06678 | 33125 ft | 543 kts | 143° |
| 2026-04-20 12:39 | 26.49590 | -82.03902 | 32455 ft | 544 kts | 143° |
| 2026-04-20 12:39 | 26.46785 | -82.01067 | 31775 ft | 544 kts | 142° |
| 2026-04-20 12:40 | 26.43985 | -81.98218 | 31121 ft | 544 kts | 142° |
| 2026-04-20 12:40 | 26.41189 | -81.95372 | 30433 ft | 544 kts | 142° |
| 2026-04-20 12:40 | 26.38398 | -81.92535 | 29672 ft | 540 kts | 142° |
| 2026-04-20 12:40 | 26.35642 | -81.89739 | 28928 ft | 533 kts | 142° |
| 2026-04-20 12:41 | 26.32915 | -81.86978 | 28323 ft | 525 kts | 142° |
| 2026-04-20 12:41 | 26.30222 | -81.84256 | 28010 ft | 521 kts | 142° |
| 2026-04-20 12:41 | 26.27574 | -81.81582 | 27842 ft | 504 kts | 142° |
| 2026-04-20 12:41 | 26.25025 | -81.78991 | 27425 ft | 489 kts | 140° |
| 2026-04-20 12:42 | 26.22809 | -81.76145 | 26727 ft | 487 kts | 127° |
| 2026-04-20 12:42 | 26.21084 | -81.72910 | 25948 ft | 485 kts | 118° |
| 2026-04-20 12:42 | 26.19640 | -81.69529 | 25181 ft | 482 kts | 115° |
| 2026-04-20 12:42 | 26.18297 | -81.66123 | 24432 ft | 478 kts | 115° |
| 2026-04-20 12:43 | 26.16982 | -81.62790 | 23704 ft | 474 kts | 115° |
| 2026-04-20 12:43 | 26.15610 | -81.59412 | 22830 ft | 470 kts | 116° |
| 2026-04-20 12:43 | 26.14255 | -81.56173 | 22086 ft | 464 kts | 116° |
| 2026-04-20 12:43 | 26.12880 | -81.52954 | 21331 ft | 458 kts | 117° |
| 2026-04-20 12:44 | 26.11508 | -81.49779 | 20590 ft | 452 kts | 117° |
| 2026-04-20 12:44 | 26.10148 | -81.46649 | 19893 ft | 446 kts | 117° |
| 2026-04-20 12:44 | 26.08806 | -81.43566 | 19208 ft | 441 kts | 117° |
| 2026-04-20 12:44 | 26.07477 | -81.40515 | 18521 ft | 436 kts | 117° |
| 2026-04-20 12:45 | 26.06163 | -81.37506 | 17755 ft | 431 kts | 117° |
| 2026-04-20 12:45 | 26.04861 | -81.34527 | 17032 ft | 425 kts | 117° |
| 2026-04-20 12:45 | 26.03581 | -81.31596 | 16341 ft | 419 kts | 117° |
| 2026-04-20 12:45 | 26.02318 | -81.28701 | 15668 ft | 413 kts | 117° |
| 2026-04-20 12:46 | 26.01074 | -81.25848 | 15013 ft | 408 kts | 117° |
| 2026-04-20 12:46 | 25.99844 | -81.23030 | 14374 ft | 403 kts | 117° |
| 2026-04-20 12:46 | 25.98627 | -81.20244 | 13721 ft | 398 kts | 117° |
| 2026-04-20 12:46 | 25.97426 | -81.17494 | 13040 ft | 393 kts | 117° |
| 2026-04-20 12:47 | 25.96241 | -81.14784 | 12437 ft | 386 kts | 117° |
| 2026-04-20 12:47 | 25.95084 | -81.12138 | 12069 ft | 374 kts | 117° |
| 2026-04-20 12:47 | 25.93958 | -81.09574 | 11484 ft | 369 kts | 117° |
| 2026-04-20 12:47 | 25.92838 | -81.07023 | 10966 ft | 364 kts | 117° |
| 2026-04-20 12:48 | 25.91753 | -81.04538 | 10735 ft | 349 kts | 116° |
| 2026-04-20 12:48 | 25.90776 | -81.02137 | 10586 ft | 334 kts | 114° |
| 2026-04-20 12:48 | 25.89867 | -80.99801 | 10284 ft | 326 kts | 114° |
| 2026-04-20 12:48 | 25.88988 | -80.97506 | 9928 ft | 320 kts | 114° |
| 2026-04-20 12:49 | 25.88117 | -80.95228 | 9373 ft | 320 kts | 114° |
| 2026-04-20 12:49 | 25.87266 | -80.93003 | 9103 ft | 311 kts | 114° |
| 2026-04-20 12:49 | 25.86441 | -80.90847 | 9021 ft | 296 kts | 114° |
| 2026-04-20 12:49 | 25.85643 | -80.88766 | 8954 ft | 291 kts | 114° |
| 2026-04-20 12:50 | 25.84850 | -80.86702 | 8888 ft | 290 kts | 114° |
| 2026-04-20 12:50 | 25.84059 | -80.84644 | 8835 ft | 290 kts | 114° |
| 2026-04-20 12:50 | 25.83264 | -80.82579 | 8604 ft | 292 kts | 114° |
| 2026-04-20 12:50 | 25.82470 | -80.80517 | 8245 ft | 289 kts | 114° |
| 2026-04-20 12:51 | 25.81686 | -80.78477 | 7856 ft | 287 kts | 114° |
| 2026-04-20 12:51 | 25.80902 | -80.76437 | 7425 ft | 288 kts | 114° |
| 2026-04-20 12:51 | 25.80115 | -80.74385 | 6988 ft | 290 kts | 114° |
| 2026-04-20 12:51 | 25.79326 | -80.72328 | 6566 ft | 290 kts | 114° |
| 2026-04-20 12:52 | 25.78534 | -80.70262 | 6106 ft | 291 kts | 114° |
| 2026-04-20 12:52 | 25.77739 | -80.68191 | 5663 ft | 291 kts | 113° |
| 2026-04-20 12:52 | 25.77275 | -80.66112 | 5269 ft | 289 kts | 95° |
| 2026-04-20 12:52 | 25.77234 | -80.63901 | 4905 ft | 285 kts | 88° |
| 2026-04-20 12:53 | 25.77315 | -80.61714 | 4529 ft | 282 kts | 86° |
| 2026-04-20 12:53 | 25.77420 | -80.59547 | 4213 ft | 279 kts | 86° |
| 2026-04-20 12:53 | 25.77524 | -80.57448 | 4113 ft | 265 kts | 86° |
| 2026-04-20 12:53 | 25.77617 | -80.55448 | 4017 ft | 258 kts | 86° |
| 2026-04-20 12:54 | 25.77707 | -80.53476 | 3662 ft | 259 kts | 86° |
| 2026-04-20 12:54 | 25.77798 | -80.51454 | 3291 ft | 259 kts | 86° |
| 2026-04-20 12:54 | 25.77885 | -80.49485 | 3130 ft | 251 kts | 86° |
| 2026-04-20 12:54 | 25.77967 | -80.47589 | 3108 ft | 249 kts | 86° |
| 2026-04-20 12:55 | 25.78051 | -80.45654 | 2778 ft | 248 kts | 86° |
| 2026-04-20 12:55 | 25.78127 | -80.43833 | 2426 ft | 223 kts | 86° |
| 2026-04-20 12:55 | 25.78188 | -80.42217 | 2048 ft | 197 kts | 86° |
| 2026-04-20 12:55 | 25.78243 | -80.40793 | 1722 ft | 175 kts | 86° |
| 2026-04-20 12:56 | 25.78296 | -80.39476 | 1495 ft | 168 kts | 86° |
| 2026-04-20 12:56 | 25.78347 | -80.38202 | 1271 ft | 164 kts | 86° |
| 2026-04-20 12:56 | 25.78398 | -80.36938 | 1067 ft | 164 kts | 86° |
| 2026-04-20 12:56 | 25.78448 | -80.35681 | 842 ft | 163 kts | 86° |
| 2026-04-20 12:57 | 25.78499 | -80.34429 | 648 ft | 162 kts | 86° |
| 2026-04-20 12:57 | 25.78549 | -80.33180 | 423 ft | 161 kts | 87° |
| 2026-04-20 12:57 | 25.78598 | -80.31941 | 221 ft | 161 kts | 87° |
| 2026-04-20 12:57 | 25.78648 | -80.30708 | 29 ft | 155 kts | 87° |
| 2026-04-20 12:58 | 25.78693 | -80.29677 | 23 ft | 110 kts | 87° |
| 2026-04-20 12:58 | 25.78724 | -80.28982 | 22 ft | 72 kts | 87° |
| 2026-04-20 12:58 | 25.78743 | -80.28563 | 22 ft | 30 kts | 87° |
| 2026-04-20 12:58 | 25.78757 | -80.28461 | 25 ft | 3 kts | 53° |
| 2026-04-20 12:59 | 25.78768 | -80.28457 | 23 ft | 5 kts | 24° |
| 2026-04-20 12:59 | 25.78824 | -80.28420 | 25 ft | 10 kts | 36° |
| 2026-04-20 12:59 | 25.78869 | -80.28427 | 27 ft | 6 kts | 314° |
| 2026-04-20 12:59 | 25.78876 | -80.28473 | 23 ft | 7 kts | 271° |
| 2026-04-20 13:00 | 25.78878 | -80.28552 | 22 ft | 14 kts | 271° |
| 2026-04-20 13:00 | 25.78878 | -80.28683 | 22 ft | 20 kts | 268° |
| 2026-04-20 13:00 | 25.78868 | -80.28838 | 26 ft | 19 kts | 261° |
| 2026-04-20 13:00 | 25.78838 | -80.28971 | 26 ft | 17 kts | 254° |
| 2026-04-20 13:01 | 25.78820 | -80.29087 | 25 ft | 14 kts | 266° |
| 2026-04-20 13:01 | 25.78815 | -80.29190 | 23 ft | 12 kts | 267° |
| 2026-04-20 13:01 | 25.78811 | -80.29277 | 26 ft | 10 kts | 267° |
| 2026-04-20 13:01 | 25.78807 | -80.29349 | 22 ft | 8 kts | 267° |
| 2026-04-20 13:02 | 25.78805 | -80.29406 | 22 ft | 6 kts | 269° |
| 2026-04-20 13:02 | 25.78804 | -80.29466 | 22 ft | 10 kts | 269° |
| 2026-04-20 13:02 | 25.78803 | -80.29562 | 23 ft | 14 kts | 269° |
| 2026-04-20 13:02 | 25.78800 | -80.29663 | 22 ft | 12 kts | 267° |
| 2026-04-20 13:03 | 25.78796 | -80.29750 | 26 ft | 10 kts | 266° |
| 2026-04-20 13:03 | 25.78813 | -80.29823 | 27 ft | 9 kts | 311° |
| 2026-04-20 13:03 | 25.78849 | -80.29867 | 25 ft | 8 kts | 308° |
| 2026-04-20 13:03 | 25.78858 | -80.29905 | 26 ft | 6 kts | 279° |
| 2026-04-20 13:04 | 25.78867 | -80.29964 | 27 ft | 7 kts | 272° |
| 2026-04-20 13:04 | 25.78868 | -80.30039 | 23 ft | 12 kts | 270° |
| 2026-04-20 13:04 | 25.78893 | -80.30111 | 26 ft | 6 kts | 313° |
| 2026-04-20 13:04 | 25.78914 | -80.30120 | 24 ft | 5 kts | 340° |
| 2026-04-20 13:05 | 25.78945 | -80.30122 | 25 ft | 5 kts | 358° |
| 2026-04-20 13:05 | 25.78982 | -80.30130 | 26 ft | 4 kts | 329° |
| 2026-04-20 13:05 | 25.78994 | -80.30163 | 26 ft | 6 kts | 276° |
| 2026-04-20 13:05 | 25.78995 | -80.30200 | 26 ft | 4 kts | 269° |
| 2026-04-20 13:06 | 25.78995 | -80.30207 | 26 ft | 0 kts | 269° |